createdAt,value
2024-01-10T00:00:44.484Z,123.96
2024-01-10T00:03:11.612Z,124.23
2024-01-10T00:05:38.690Z,122.86
2024-01-10T00:08:07.731Z,119.88
2024-01-10T00:10:34.767Z,125.30
2024-01-10T00:13:01.906Z,122.84
2024-01-10T00:15:29.011Z,121.16
2024-01-10T00:17:56.115Z,128.30
2024-01-10T00:20:23.309Z,127.30
2024-01-10T00:22:50.797Z,126.91
2024-01-10T00:25:17.988Z,127.60
2024-01-10T00:27:44.978Z,124.58
2024-01-10T00:30:12.290Z,120.83
2024-01-10T00:32:39.442Z,125.48
2024-01-10T00:35:06.695Z,119.09
2024-01-10T00:37:33.955Z,124.67
2024-01-10T00:40:00.984Z,130.35
2024-01-10T00:42:28.090Z,130.63
2024-01-10T00:44:55.423Z,128.14
2024-01-10T00:47:22.552Z,130.61
2024-01-10T00:49:49.725Z,125.85
2024-01-10T00:52:16.847Z,124.36
2024-01-10T00:54:45.555Z,125.11
2024-01-10T00:57:12.632Z,122.64
2024-01-10T00:59:40.414Z,123.02
2024-01-10T01:02:07.617Z,128.16
2024-01-10T01:04:34.752Z,128.20
2024-01-10T01:07:01.786Z,119.19
2024-01-10T01:09:28.768Z,123.31
2024-01-10T01:11:55.946Z,128.64
2024-01-10T01:14:23.196Z,124.11
2024-01-10T01:16:50.281Z,117.11
2024-01-10T01:19:17.455Z,121.10
2024-01-10T01:21:44.996Z,121.92
2024-01-10T01:24:12.696Z,118.86
2024-01-10T01:26:39.780Z,110.63
2024-01-10T01:29:07.235Z,110.51
2024-01-10T01:31:34.375Z,110.86
2024-01-10T01:34:01.601Z,138.69
2024-01-10T01:36:28.721Z,109.75
2024-01-10T01:38:55.841Z,108.70
2024-01-10T01:41:23.006Z,111.36
2024-01-10T01:43:50.341Z,112.95
2024-01-10T01:46:17.707Z,109.21
2024-01-10T01:48:45.667Z,108.11
2024-01-10T01:51:16.496Z,106.14
2024-01-10T01:53:47.001Z,111.05
2024-01-10T01:56:16.329Z,102.85
2024-01-10T01:58:46.557Z,107.83
2024-01-10T02:01:14.268Z,111.60
2024-01-10T02:03:41.689Z,109.40
2024-01-10T02:06:09.020Z,111.47
2024-01-10T02:08:37.542Z,107.76
2024-01-10T02:11:06.674Z,111.83
2024-01-10T02:13:34.835Z,110.36
2024-01-10T02:16:04.982Z,115.63
2024-01-10T02:18:32.882Z,111.45
2024-01-10T02:21:00.055Z,113.96
2024-01-10T02:23:27.182Z,113.37
2024-01-10T02:25:54.491Z,114.23
2024-01-10T02:28:21.639Z,108.18
2024-01-10T02:30:48.926Z,110.05
2024-01-10T02:33:16.102Z,108.53
2024-01-10T02:35:43.232Z,111.24
2024-01-10T02:38:10.367Z,109.01
2024-01-10T02:40:37.661Z,109.81
2024-01-10T02:43:05.044Z,109.77
2024-01-10T02:45:32.136Z,109.32
2024-01-10T02:47:59.306Z,106.54
2024-01-10T02:50:26.427Z,105.24
2024-01-10T02:52:53.548Z,108.36
2024-01-10T02:55:20.666Z,106.42
2024-01-10T02:57:47.770Z,111.95
2024-01-10T03:00:15.513Z,107.98
2024-01-10T03:02:42.613Z,107.28
2024-01-10T03:05:09.914Z,111.38
2024-01-10T03:07:37.106Z,110.96
2024-01-10T03:10:05.444Z,110.25
2024-01-10T03:12:32.484Z,110.68
2024-01-10T03:15:00.379Z,110.30
2024-01-10T03:17:27.495Z,117.45
2024-01-10T03:19:54.579Z,113.49
2024-01-10T03:22:21.655Z,113.89
2024-01-10T03:24:49.237Z,118.20
2024-01-10T03:27:16.287Z,115.36
2024-01-10T03:29:43.299Z,114.58
2024-01-10T03:32:10.496Z,113.76
2024-01-10T03:34:37.615Z,111.84
2024-01-10T03:37:05.085Z,115.72
2024-01-10T03:39:32.197Z,114.98
2024-01-10T03:41:59.223Z,120.71
2024-01-10T03:44:28.678Z,121.24
2024-01-10T03:46:56.172Z,114.45
2024-01-10T03:49:24.200Z,115.58
2024-01-10T03:51:51.323Z,119.34
2024-01-10T03:54:18.377Z,116.03
2024-01-10T03:56:45.477Z,117.11
2024-01-10T03:59:12.563Z,112.38
2024-01-10T04:01:40.839Z,117.61
2024-01-10T04:04:07.903Z,119.60
2024-01-10T04:06:36.170Z,119.20
2024-01-10T04:09:04.197Z,118.86
2024-01-10T04:11:31.282Z,114.40
2024-01-10T04:13:58.599Z,121.60
2024-01-10T04:16:27.357Z,124.98
2024-01-10T04:18:54.399Z,123.22
2024-01-10T04:21:22.904Z,120.67
2024-01-10T04:23:49.973Z,121.22
2024-01-10T04:26:17.163Z,125.12
2024-01-10T04:28:44.353Z,118.55
2024-01-10T04:31:11.557Z,124.51
2024-01-10T04:33:38.658Z,127.16
2024-01-10T04:36:06.083Z,129.77
2024-01-10T04:38:33.380Z,129.16
2024-01-10T04:41:00.553Z,133.40
2024-01-10T04:43:27.670Z,134.24
2024-01-10T04:45:54.769Z,134.16
2024-01-10T04:48:21.927Z,132.82
2024-01-10T04:50:49.195Z,132.61
2024-01-10T04:53:16.322Z,137.45
2024-01-10T04:55:43.468Z,134.99
2024-01-10T04:58:10.547Z,137.22
2024-01-10T05:00:38.010Z,134.75
2024-01-10T05:03:05.415Z,140.12
2024-01-10T05:05:32.630Z,136.36
2024-01-10T05:07:59.786Z,137.14
2024-01-10T05:10:26.882Z,137.82
2024-01-10T05:12:53.930Z,142.20
2024-01-10T05:15:21.117Z,135.19
2024-01-10T05:17:48.288Z,137.21
2024-01-10T05:20:15.439Z,137.89
2024-01-10T05:22:44.729Z,139.55
2024-01-10T05:25:11.808Z,134.75
2024-01-10T05:27:38.871Z,133.99
2024-01-10T05:30:07.059Z,137.02
2024-01-10T05:32:34.163Z,137.22
2024-01-10T05:35:01.907Z,135.72
2024-01-10T05:37:29.049Z,135.76
2024-01-10T05:39:56.126Z,137.09
2024-01-10T05:42:23.184Z,136.20
2024-01-10T05:44:50.215Z,141.09
2024-01-10T05:47:17.305Z,139.75
2024-01-10T05:49:44.453Z,137.71
2024-01-10T05:52:11.791Z,138.28
2024-01-10T05:54:39.968Z,138.13
2024-01-10T05:57:07.326Z,141.23
2024-01-10T05:59:34.367Z,148.06
2024-01-10T06:02:01.426Z,140.83
2024-01-10T06:04:29.459Z,140.95
2024-01-10T06:06:56.540Z,140.26
2024-01-10T06:09:23.616Z,136.60
2024-01-10T06:11:51.188Z,138.61
2024-01-10T06:14:18.902Z,136.11
2024-01-10T06:16:46.806Z,138.76
2024-01-10T06:19:13.999Z,138.53
2024-01-10T06:21:41.159Z,138.35
2024-01-10T06:24:09.578Z,134.16
2024-01-10T06:26:36.783Z,133.29
2024-01-10T06:29:03.935Z,139.14
2024-01-10T06:31:31.068Z,135.44
2024-01-10T06:33:58.180Z,131.05
2024-01-10T06:36:25.584Z,130.51
2024-01-10T06:38:52.750Z,135.69
2024-01-10T06:41:25.802Z,137.05
2024-01-10T06:43:54.324Z,144.21
2024-01-10T06:46:22.688Z,140.51
2024-01-10T06:48:49.904Z,141.72
2024-01-10T06:51:18.078Z,144.17
2024-01-10T06:53:45.087Z,147.87
2024-01-10T06:56:12.628Z,147.07
2024-01-10T06:58:40.859Z,145.62
2024-01-10T07:01:15.290Z,144.21
2024-01-10T07:03:42.911Z,145.29
2024-01-10T07:06:10.263Z,144.70
2024-01-10T07:08:37.761Z,149.03
2024-01-10T07:11:05.111Z,151.78
2024-01-10T07:13:33.032Z,152.70
2024-01-10T07:16:03.489Z,151.25
2024-01-10T07:18:31.214Z,152.09
2024-01-10T07:20:58.471Z,150.10
2024-01-10T07:23:25.726Z,151.48
2024-01-10T07:25:53.928Z,155.20
2024-01-10T07:28:21.902Z,149.77
2024-01-10T07:30:50.146Z,195.19
2024-01-10T07:33:17.392Z,201.83
2024-01-10T07:35:44.970Z,151.54
2024-01-10T07:38:12.167Z,144.25
2024-01-10T07:40:39.270Z,143.20
2024-01-10T07:43:06.341Z,135.87
2024-01-10T07:45:34.937Z,140.42
2024-01-10T07:48:02.270Z,139.20
2024-01-10T07:50:30.269Z,137.98
2024-01-10T07:52:58.067Z,138.29
2024-01-10T07:55:25.161Z,139.64
2024-01-10T07:57:53.317Z,144.48
2024-01-10T08:00:21.975Z,143.93
2024-01-10T08:02:50.218Z,143.57
2024-01-10T08:05:17.543Z,142.94
2024-01-10T08:07:44.800Z,144.57
2024-01-10T08:10:12.102Z,140.93
2024-01-10T08:12:45.843Z,142.18
2024-01-10T08:15:12.939Z,142.37
2024-01-10T08:17:40.130Z,145.32
2024-01-10T08:20:10.265Z,142.58
2024-01-10T08:22:37.503Z,145.00
2024-01-10T08:25:06.021Z,140.93
2024-01-10T08:27:33.142Z,145.72
2024-01-10T08:30:00.675Z,147.54
2024-01-10T08:32:27.875Z,146.70
2024-01-10T08:34:54.946Z,148.69
2024-01-10T08:37:22.191Z,148.70
2024-01-10T08:39:49.347Z,148.43
2024-01-10T08:42:16.581Z,147.98
2024-01-10T08:44:44.849Z,149.05
2024-01-10T08:47:12.052Z,151.64
2024-01-10T08:49:39.749Z,148.38
2024-01-10T08:52:07.175Z,150.69
2024-01-10T08:54:35.254Z,149.87
2024-01-10T08:57:02.309Z,150.42
2024-01-10T08:59:29.767Z,151.57
2024-01-10T09:01:57.375Z,147.05
2024-01-10T09:04:24.438Z,151.64
2024-01-10T09:06:51.831Z,149.70
2024-01-10T09:09:22.431Z,150.05
2024-01-10T09:11:50.056Z,147.73
2024-01-10T09:14:17.236Z,147.78
2024-01-10T09:16:44.715Z,151.35
2024-01-10T09:19:12.370Z,146.27
2024-01-10T09:21:41.709Z,150.10
2024-01-10T09:24:21.728Z,147.94
2024-01-10T09:26:56.217Z,145.44
2024-01-10T09:29:25.702Z,149.02
2024-01-10T09:31:53.044Z,152.52
2024-01-10T09:34:21.646Z,150.31
2024-01-10T09:36:49.453Z,150.83
2024-01-10T09:39:18.292Z,148.51
2024-01-10T09:41:51.746Z,151.69
2024-01-10T09:44:20.309Z,153.14
2024-01-10T09:46:54.471Z,154.02
2024-01-10T09:49:23.915Z,150.21
2024-01-10T09:51:54.907Z,160.84
2024-01-10T09:54:27.416Z,166.47
2024-01-10T09:56:54.999Z,174.21
2024-01-10T09:59:22.319Z,151.32
2024-01-10T10:01:49.879Z,150.02
2024-01-10T10:04:20.368Z,145.74
2024-01-10T10:06:47.836Z,142.01
2024-01-10T10:09:17.389Z,135.74
2024-01-10T10:11:44.787Z,142.93
2024-01-10T10:14:20.390Z,145.75
2024-01-10T10:16:47.775Z,141.15
2024-01-10T10:19:34.219Z,139.14
2024-01-10T10:22:12.082Z,141.62
2024-01-10T10:24:41.039Z,145.72
2024-01-10T10:27:12.972Z,140.76
2024-01-10T10:29:41.050Z,147.26
2024-01-10T10:32:10.296Z,148.77
2024-01-10T10:34:37.604Z,145.60
2024-01-10T10:37:06.436Z,143.20
2024-01-10T10:39:33.664Z,144.96
2024-01-10T10:42:02.734Z,147.18
2024-01-10T10:44:37.463Z,147.32
2024-01-10T10:47:13.685Z,151.61
2024-01-10T10:49:56.525Z,153.41
2024-01-10T10:52:26.283Z,152.22
2024-01-10T10:54:58.581Z,148.37
2024-01-10T10:57:29.129Z,150.45
2024-01-10T10:59:58.875Z,152.61
2024-01-10T11:02:30.203Z,147.89
2024-01-10T11:05:02.838Z,148.81
2024-01-10T11:07:30.172Z,149.47
2024-01-10T11:10:02.235Z,147.70
2024-01-10T11:13:11.942Z,144.05
2024-01-10T11:16:17.967Z,144.72
2024-01-10T11:19:12.107Z,150.99
2024-01-10T11:21:50.930Z,147.69
2024-01-10T11:24:21.174Z,147.42
2024-01-10T11:26:48.422Z,145.25
2024-01-10T11:29:17.259Z,149.36
2024-01-10T11:31:54.079Z,146.61
2024-01-10T11:34:28.343Z,146.98
2024-01-10T11:37:14.252Z,165.44
2024-01-10T11:39:45.360Z,146.28
2024-01-10T11:42:13.657Z,150.55
2024-01-10T11:44:52.258Z,154.58
2024-01-10T11:47:21.548Z,150.52
2024-01-10T11:50:00.535Z,150.05
2024-01-10T11:52:35.978Z,155.68
2024-01-10T11:55:04.470Z,162.74
2024-01-10T11:57:33.769Z,154.88
2024-01-10T12:00:02.214Z,145.03
2024-01-10T12:02:32.091Z,135.06
2024-01-10T12:05:00.208Z,142.07
2024-01-10T12:07:27.564Z,153.51
2024-01-10T12:09:56.430Z,149.87
2024-01-10T12:12:23.756Z,140.97
2024-01-10T12:14:53.192Z,133.37
2024-01-10T12:17:20.972Z,138.81
2024-01-10T12:19:49.860Z,136.27
2024-01-10T12:22:20.128Z,134.30
2024-01-10T12:24:52.024Z,133.51
2024-01-10T12:27:23.023Z,133.89
2024-01-10T12:29:54.135Z,136.12
2024-01-10T12:32:25.510Z,131.81
2024-01-10T12:35:03.345Z,135.09
2024-01-10T12:37:30.739Z,129.53
2024-01-10T12:39:58.675Z,132.04
2024-01-10T12:42:26.064Z,133.13
2024-01-10T12:44:53.146Z,131.47
2024-01-10T12:47:22.827Z,134.07
2024-01-10T12:49:51.247Z,130.57
2024-01-10T12:52:22.654Z,133.81
2024-01-10T12:54:50.556Z,128.34
2024-01-10T12:57:17.977Z,122.75
2024-01-10T12:59:46.762Z,126.50
2024-01-10T13:02:13.924Z,126.84
2024-01-10T13:04:41.210Z,130.06
2024-01-10T13:07:08.393Z,126.85
2024-01-10T13:09:36.752Z,135.80
2024-01-10T13:12:05.728Z,134.35
2024-01-10T13:14:33.485Z,130.29
2024-01-10T13:17:01.232Z,126.62
2024-01-10T13:19:28.780Z,130.26
2024-01-10T13:21:56.826Z,129.64
2024-01-10T13:24:24.019Z,124.36
2024-01-10T13:26:51.235Z,126.11
2024-01-10T13:29:18.427Z,123.79
2024-01-10T13:31:45.882Z,120.61
2024-01-10T13:34:13.217Z,123.25
2024-01-10T13:36:40.885Z,126.24
2024-01-10T13:39:08.780Z,123.58
2024-01-10T13:41:36.527Z,124.14
2024-01-10T13:44:05.257Z,124.43
2024-01-10T13:46:33.361Z,121.00
2024-01-10T13:49:03.411Z,123.14
2024-01-10T13:51:31.479Z,126.86
2024-01-10T13:53:58.709Z,128.87
2024-01-10T13:56:26.074Z,134.83
2024-01-10T13:58:53.140Z,135.86
2024-01-10T14:01:20.312Z,141.90
2024-01-10T14:03:47.640Z,133.83
2024-01-10T14:06:14.967Z,130.25
2024-01-10T14:08:45.045Z,132.80
2024-01-10T14:11:12.227Z,129.87
2024-01-10T14:13:39.331Z,139.15
2024-01-10T14:16:06.561Z,140.33
2024-01-10T14:18:34.297Z,128.37
2024-01-10T14:21:01.618Z,133.22
2024-01-10T14:23:28.711Z,132.18
2024-01-10T14:25:55.933Z,126.16
2024-01-10T14:28:23.895Z,132.57
2024-01-10T14:30:52.108Z,129.68
2024-01-10T14:33:21.583Z,131.25
2024-01-10T14:35:48.966Z,125.56
2024-01-10T14:38:16.276Z,128.58
2024-01-10T14:40:43.438Z,133.95
2024-01-10T14:43:10.490Z,131.91
2024-01-10T14:45:37.645Z,124.64
2024-01-10T14:48:05.528Z,124.63
2024-01-10T14:50:32.790Z,124.55
2024-01-10T14:52:59.975Z,124.76
2024-01-10T14:55:27.214Z,124.50
2024-01-10T14:57:54.295Z,124.24
2024-01-10T15:00:21.575Z,125.54
2024-01-10T15:02:49.792Z,125.51
2024-01-10T15:05:17.518Z,127.78
2024-01-10T15:07:44.595Z,122.82
2024-01-10T15:10:11.921Z,118.61
2024-01-10T15:12:39.093Z,123.61
2024-01-10T15:15:07.377Z,120.74
2024-01-10T15:17:35.001Z,126.40
2024-01-10T15:20:02.227Z,122.82
2024-01-10T15:22:30.552Z,118.17
2024-01-10T15:24:57.597Z,116.78
2024-01-10T15:27:24.690Z,116.70
2024-01-10T15:29:56.822Z,111.08
2024-01-10T15:32:34.999Z,108.66
2024-01-10T15:35:06.733Z,112.43
2024-01-10T15:37:34.412Z,109.79
2024-01-10T15:40:02.118Z,110.22
2024-01-10T15:42:30.012Z,113.43
2024-01-10T15:44:57.159Z,109.82
2024-01-10T15:47:25.101Z,117.85
2024-01-10T15:49:52.759Z,128.63
2024-01-10T15:52:28.521Z,152.07
2024-01-10T15:54:56.631Z,144.22
2024-01-10T15:57:27.085Z,128.09
2024-01-10T15:59:55.922Z,117.17
2024-01-10T16:02:23.380Z,114.86
2024-01-10T16:04:51.475Z,113.37
2024-01-10T16:07:21.806Z,109.54
2024-01-10T16:09:49.452Z,103.23
2024-01-10T16:12:19.106Z,110.70
2024-01-10T16:14:48.953Z,111.54
2024-01-10T16:17:19.212Z,102.35
2024-01-10T16:20:05.862Z,107.78
2024-01-10T16:22:37.577Z,109.89
2024-01-10T16:25:06.502Z,109.18
2024-01-10T16:27:33.575Z,121.22
2024-01-10T16:30:01.873Z,111.48
2024-01-10T16:32:30.789Z,106.58
2024-01-10T16:34:59.593Z,103.91
2024-01-10T16:37:26.773Z,102.61
2024-01-10T16:39:54.671Z,118.54
2024-01-10T16:42:21.935Z,100.74
2024-01-10T16:44:49.379Z,116.50
2024-01-10T16:47:16.792Z,117.63
2024-01-10T16:49:47.021Z,113.17
2024-01-10T16:52:14.445Z,108.26
2024-01-10T16:54:41.746Z,102.08
2024-01-10T16:57:09.826Z,104.42
2024-01-10T16:59:36.945Z,106.76
2024-01-10T17:02:04.161Z,104.66
2024-01-10T17:04:31.621Z,113.33
2024-01-10T17:06:58.685Z,136.49
2024-01-10T17:09:28.069Z,119.02
2024-01-10T17:11:55.137Z,113.76
2024-01-10T17:14:22.294Z,109.22
2024-01-10T17:16:49.653Z,111.62
2024-01-10T17:19:16.834Z,104.51
2024-01-10T17:21:44.183Z,99.70
2024-01-10T17:24:11.519Z,105.25
2024-01-10T17:26:38.703Z,102.39
2024-01-10T17:29:08.347Z,105.58
2024-01-10T17:31:35.460Z,100.97
2024-01-10T17:34:02.860Z,101.31
2024-01-10T17:36:38.029Z,97.97
2024-01-10T17:39:06.160Z,97.56
2024-01-10T17:41:33.861Z,123.83
2024-01-10T17:44:01.178Z,109.07
2024-01-10T17:46:28.301Z,108.94
2024-01-10T17:48:55.570Z,106.86
2024-01-10T17:51:23.280Z,97.95
2024-01-10T17:53:50.458Z,101.24
2024-01-10T17:56:17.734Z,102.21
2024-01-10T17:58:44.845Z,110.60
2024-01-10T18:01:12.379Z,100.85
2024-01-10T18:03:39.513Z,100.58
2024-01-10T18:06:07.155Z,94.19
2024-01-10T18:08:34.556Z,94.38
2024-01-10T18:11:01.830Z,103.45
2024-01-10T18:13:28.854Z,113.76
2024-01-10T18:15:55.961Z,121.24
2024-01-10T18:18:23.929Z,115.23
2024-01-10T18:20:51.303Z,115.34
2024-01-10T18:23:18.392Z,104.63
2024-01-10T18:25:48.140Z,111.10
2024-01-10T18:28:15.404Z,111.01
2024-01-10T18:30:42.471Z,107.96
2024-01-10T18:33:10.699Z,101.63
2024-01-10T18:35:38.307Z,109.58
2024-01-10T18:38:05.982Z,115.34
2024-01-10T18:40:33.109Z,111.67
2024-01-10T18:43:00.166Z,142.68
2024-01-10T18:45:27.196Z,129.68
2024-01-10T18:47:54.534Z,139.43
2024-01-10T18:50:21.730Z,117.08
2024-01-10T18:52:48.843Z,119.73
2024-01-10T18:55:15.913Z,132.10
2024-01-10T18:57:42.968Z,130.75
2024-01-10T19:00:13.408Z,139.08
2024-01-10T19:02:40.487Z,118.04
2024-01-10T19:05:08.070Z,125.84
2024-01-10T19:07:35.142Z,118.94
2024-01-10T19:10:02.879Z,119.82
2024-01-10T19:12:30.197Z,118.93
2024-01-10T19:14:57.253Z,118.17
2024-01-10T19:17:24.445Z,115.65
2024-01-10T19:19:51.645Z,108.03
2024-01-10T19:22:18.738Z,109.71
2024-01-10T19:24:45.818Z,111.49
2024-01-10T19:27:13.256Z,115.08
2024-01-10T19:29:40.509Z,113.76
2024-01-10T19:32:07.556Z,116.16
2024-01-10T19:34:34.696Z,115.65
2024-01-10T19:37:02.136Z,115.32
2024-01-10T19:39:29.260Z,112.62
2024-01-10T19:41:56.337Z,114.54
2024-01-10T19:44:23.447Z,117.56
2024-01-10T19:46:50.793Z,121.62
2024-01-10T19:49:18.109Z,128.64
2024-01-10T19:51:48.154Z,129.27
2024-01-10T19:54:16.164Z,130.02
2024-01-10T19:56:43.273Z,132.22
2024-01-10T19:59:10.339Z,132.01
2024-01-10T20:01:37.362Z,126.46
2024-01-10T20:04:04.620Z,124.15
2024-01-10T20:06:31.815Z,130.07
2024-01-10T20:08:58.952Z,127.51
2024-01-10T20:11:26.704Z,124.22
2024-01-10T20:13:53.879Z,133.42
2024-01-10T20:16:20.941Z,127.66
2024-01-10T20:18:48.126Z,126.17
2024-01-10T20:21:16.864Z,130.79
2024-01-10T20:23:48.497Z,131.21
2024-01-10T20:26:16.260Z,133.54
2024-01-10T20:28:43.337Z,132.53
2024-01-10T20:31:10.948Z,134.95
2024-01-10T20:33:38.347Z,134.98
2024-01-10T20:36:06.071Z,135.76
2024-01-10T20:38:33.256Z,132.31
2024-01-10T20:41:00.743Z,138.06
2024-01-10T20:43:28.222Z,134.24
2024-01-10T20:45:55.535Z,134.10
2024-01-10T20:48:22.618Z,142.16
2024-01-10T20:50:49.689Z,139.82
2024-01-10T20:53:17.244Z,136.39
2024-01-10T20:55:44.777Z,134.01
2024-01-10T20:58:12.388Z,137.38
2024-01-10T21:00:40.444Z,135.61
2024-01-10T21:03:07.859Z,134.08
2024-01-10T21:05:35.148Z,130.38
2024-01-10T21:08:02.313Z,137.70
2024-01-10T21:10:29.424Z,140.87
2024-01-10T21:12:56.536Z,143.60
2024-01-10T21:15:23.744Z,140.07
2024-01-10T21:17:51.046Z,146.65
2024-01-10T21:20:18.239Z,147.14
2024-01-10T21:22:45.283Z,145.57
2024-01-10T21:25:12.536Z,144.26
2024-01-10T21:27:41.708Z,149.15
2024-01-10T21:30:09.623Z,146.41
2024-01-10T21:32:36.943Z,147.89
2024-01-10T21:35:04.419Z,150.90
2024-01-10T21:37:31.599Z,147.39
2024-01-10T21:39:58.924Z,153.34
2024-01-10T21:42:27.055Z,150.01
2024-01-10T21:44:55.240Z,151.00
2024-01-10T21:47:22.390Z,153.54
2024-01-10T21:49:49.856Z,150.31
2024-01-10T21:52:17.005Z,149.87
2024-01-10T21:54:44.129Z,151.92
2024-01-10T21:57:11.133Z,149.84
2024-01-10T21:59:41.690Z,155.39
2024-01-10T22:02:08.894Z,149.60
2024-01-10T22:04:36.243Z,151.68
2024-01-10T22:07:03.617Z,151.59
2024-01-10T22:09:30.740Z,155.79
2024-01-10T22:11:57.768Z,161.32
2024-01-10T22:14:24.819Z,161.36
2024-01-10T22:16:52.012Z,156.67
2024-01-10T22:19:19.330Z,153.81
2024-01-10T22:21:46.571Z,157.23
2024-01-10T22:24:13.668Z,155.95
2024-01-10T22:26:40.738Z,152.00
2024-01-10T22:29:07.834Z,152.05
2024-01-10T22:31:34.981Z,156.86
2024-01-10T22:34:02.068Z,153.47
2024-01-10T22:36:29.207Z,153.58
2024-01-10T22:38:56.789Z,150.50
2024-01-10T22:41:23.923Z,150.82
2024-01-10T22:43:51.035Z,149.34
2024-01-10T22:46:18.500Z,150.60
2024-01-10T22:48:45.652Z,149.35
2024-01-10T22:51:12.922Z,149.26
2024-01-10T22:53:40.385Z,149.87
2024-01-10T22:56:07.725Z,153.59
2024-01-10T22:58:34.768Z,151.57
2024-01-10T23:01:02.249Z,153.90
2024-01-10T23:03:33.234Z,153.70
2024-01-10T23:06:01.930Z,155.64
2024-01-10T23:08:29.769Z,152.84
2024-01-10T23:10:58.691Z,155.62
2024-01-10T23:13:26.054Z,158.11
2024-01-10T23:15:53.491Z,154.86
2024-01-10T23:18:22.000Z,151.20
2024-01-10T23:20:49.757Z,154.73
2024-01-10T23:23:16.856Z,154.01
2024-01-10T23:25:44.047Z,153.60
2024-01-10T23:28:11.134Z,155.23
2024-01-10T23:30:38.239Z,165.56
2024-01-10T23:33:05.630Z,158.10
2024-01-10T23:35:40.677Z,156.85
2024-01-10T23:38:15.061Z,160.38
2024-01-10T23:40:42.235Z,157.93
2024-01-10T23:43:15.771Z,153.19
2024-01-10T23:45:52.366Z,160.70
2024-01-10T23:48:19.624Z,155.84
2024-01-10T23:50:46.761Z,155.25
2024-01-10T23:53:14.071Z,155.63
2024-01-10T23:55:41.202Z,153.33
2024-01-10T23:58:08.421Z,151.00
